createdAt,value
2023-02-16T00:05:24.967Z,40.42
2023-02-16T00:11:54.239Z,41.55
2023-02-16T00:17:58.545Z,41.85
2023-02-16T00:24:00.323Z,43.00
2023-02-16T00:30:02.861Z,42.35
2023-02-16T00:36:05.048Z,43.10
2023-02-16T00:42:18.631Z,41.38
2023-02-16T00:48:21.739Z,40.55
2023-02-16T00:54:23.655Z,41.65
2023-02-16T01:00:38.015Z,41.67
2023-02-16T01:06:58.875Z,40.95
2023-02-16T01:13:02.215Z,41.08
2023-02-16T01:19:05.654Z,40.47
2023-02-16T01:25:08.878Z,45.90
2023-02-16T01:31:48.634Z,41.58
2023-02-16T01:37:52.276Z,40.97
2023-02-16T01:44:13.052Z,40.42
2023-02-16T01:50:29.029Z,39.40
2023-02-16T01:56:42.074Z,39.95
2023-02-16T02:03:15.763Z,40.95
2023-02-16T02:09:33.638Z,41.40
2023-02-16T02:15:36.680Z,40.63
2023-02-16T02:22:20.096Z,40.38
2023-02-16T02:28:47.534Z,40.75
2023-02-16T02:35:12.088Z,39.90
2023-02-16T02:42:03.118Z,40.30
2023-02-16T02:48:07.193Z,39.17
2023-02-16T02:54:36.442Z,40.10
2023-02-16T03:00:47.590Z,40.85
2023-02-16T03:06:54.235Z,39.90
2023-02-16T03:12:57.971Z,46.55
2023-02-16T03:19:20.320Z,42.83
2023-02-16T03:25:43.925Z,45.33
2023-02-16T03:31:48.032Z,45.53
2023-02-16T03:37:50.388Z,45.90
2023-02-16T03:43:52.782Z,44.42
2023-02-16T03:49:55.342Z,43.00
2023-02-16T03:55:57.738Z,40.90
2023-02-16T04:02:00.265Z,41.67
2023-02-16T04:08:03.088Z,39.83
2023-02-16T04:14:05.381Z,41.47
2023-02-16T04:20:09.827Z,42.83
2023-02-16T04:26:12.607Z,41.88
2023-02-16T04:32:15.103Z,42.95
2023-02-16T04:38:17.620Z,42.78
2023-02-16T04:44:20.023Z,42.65
2023-02-16T04:50:22.305Z,44.05
2023-02-16T04:56:25.008Z,43.45
2023-02-16T05:02:27.906Z,42.75
2023-02-16T05:08:31.052Z,42.15
2023-02-16T05:14:47.925Z,42.38
2023-02-16T05:21:08.784Z,40.00
2023-02-16T05:27:17.999Z,40.33
2023-02-16T05:33:20.749Z,42.28
2023-02-16T05:39:23.302Z,42.50
2023-02-16T05:45:25.854Z,41.05
2023-02-16T05:51:28.664Z,39.38
2023-02-16T05:57:33.836Z,38.95
2023-02-16T06:03:36.535Z,37.53
2023-02-16T06:09:39.032Z,42.78
2023-02-16T06:15:41.728Z,44.47
2023-02-16T06:21:44.767Z,43.55
2023-02-16T06:27:47.184Z,45.10
2023-02-16T06:33:49.734Z,44.88
2023-02-16T06:39:51.923Z,46.45
2023-02-16T06:45:54.162Z,43.08
2023-02-16T06:51:56.314Z,43.88
2023-02-16T06:57:58.694Z,44.13
2023-02-16T07:04:01.099Z,45.97
2023-02-16T07:10:04.046Z,47.00
2023-02-16T07:16:07.439Z,46.30
2023-02-16T07:22:09.423Z,49.53
2023-02-16T07:28:11.252Z,49.92
2023-02-16T07:34:13.079Z,49.55
2023-02-16T07:40:14.898Z,46.88
2023-02-16T07:46:16.747Z,46.25
2023-02-16T07:52:18.508Z,44.90
2023-02-16T07:58:29.358Z,42.47
2023-02-16T08:04:31.209Z,45.17
2023-02-16T08:10:32.994Z,43.05
2023-02-16T08:16:35.454Z,43.10
2023-02-16T08:22:37.609Z,40.25
2023-02-16T08:28:46.086Z,41.75
2023-02-16T08:34:48.186Z,40.08
2023-02-16T08:40:50.920Z,39.78
2023-02-16T08:46:55.559Z,38.95
2023-02-16T08:52:58.344Z,37.95
2023-02-16T08:59:00.497Z,37.92
2023-02-16T09:05:02.289Z,37.28
2023-02-16T09:11:07.025Z,36.00
2023-02-16T09:17:08.864Z,35.67
2023-02-16T09:23:12.368Z,34.90
2023-02-16T09:29:14.706Z,32.90
2023-02-16T09:35:16.515Z,33.10
2023-02-16T09:41:26.738Z,32.72
2023-02-16T09:47:34.607Z,32.38
2023-02-16T09:53:40.515Z,33.30
2023-02-16T10:00:08.038Z,32.10
2023-02-16T10:06:47.401Z,31.23
2023-02-16T10:13:19.064Z,30.42
2023-02-16T10:19:27.853Z,31.00
2023-02-16T10:25:35.151Z,30.90
2023-02-16T10:32:03.110Z,31.65
2023-02-16T10:38:33.697Z,31.25
2023-02-16T10:44:44.679Z,30.25
2023-02-16T10:50:58.789Z,29.70
2023-02-16T10:57:06.686Z,30.02
2023-02-16T11:03:12.516Z,29.58
2023-02-16T11:09:15.796Z,29.50
2023-02-16T11:15:18.798Z,29.00
2023-02-16T11:21:20.586Z,28.38
2023-02-16T11:27:24.236Z,29.75
2023-02-16T11:33:28.415Z,28.27
2023-02-16T11:39:35.415Z,28.38
2023-02-16T11:45:38.032Z,28.17
2023-02-16T11:51:43.112Z,28.70
2023-02-16T11:57:45.046Z,28.40
2023-02-16T12:04:21.122Z,27.33
2023-02-16T12:10:38.316Z,26.60
2023-02-16T12:16:52.897Z,26.97
2023-02-16T12:23:34.618Z,25.45
2023-02-16T12:29:48.081Z,24.23
2023-02-16T12:36:15.349Z,25.30
2023-02-16T12:42:55.140Z,23.93
2023-02-16T12:49:04.116Z,23.25
2023-02-16T12:55:40.678Z,22.27
2023-02-16T13:01:44.798Z,21.63
2023-02-16T13:08:45.641Z,21.92
2023-02-16T13:14:56.712Z,22.00
2023-02-16T13:21:14.530Z,21.83
2023-02-16T13:27:41.979Z,21.63
2023-02-16T13:33:47.187Z,22.77
2023-02-16T13:40:16.936Z,21.70
2023-02-16T13:46:32.833Z,22.55
2023-02-16T13:52:42.615Z,21.80
2023-02-16T13:58:44.545Z,21.80
2023-02-16T14:04:51.204Z,23.38
2023-02-16T14:10:55.976Z,24.10
2023-02-16T14:17:19.929Z,23.38
2023-02-16T14:23:34.355Z,23.45
2023-02-16T14:29:53.716Z,25.35
2023-02-16T14:35:58.500Z,22.83
2023-02-16T14:42:44.208Z,24.02
2023-02-16T14:49:16.579Z,22.83
2023-02-16T14:55:37.314Z,24.85
2023-02-16T15:01:44.580Z,22.25
2023-02-16T15:07:51.102Z,23.13
2023-02-16T15:13:53.990Z,22.83
2023-02-16T15:20:01.877Z,23.63
2023-02-16T15:26:07.417Z,21.88
2023-02-16T15:32:09.711Z,22.92
2023-02-16T15:38:26.867Z,23.33
2023-02-16T15:44:39.593Z,22.98
2023-02-16T15:50:44.650Z,24.20
2023-02-16T15:56:53.222Z,25.13
2023-02-16T16:02:58.442Z,23.42
2023-02-16T16:09:02.809Z,24.50
2023-02-16T16:15:07.844Z,24.25
2023-02-16T16:21:34.185Z,24.30
2023-02-16T16:27:38.064Z,25.38
2023-02-16T16:34:06.036Z,26.38
2023-02-16T16:40:23.524Z,27.53
2023-02-16T16:46:33.257Z,28.40
2023-02-16T16:52:37.031Z,27.58
2023-02-16T16:58:38.838Z,31.35
2023-02-16T17:04:40.596Z,31.23
2023-02-16T17:10:42.835Z,28.73
2023-02-16T17:16:47.704Z,28.80
2023-02-16T17:22:49.883Z,30.88
2023-02-16T17:28:51.649Z,28.88
2023-02-16T17:34:53.413Z,31.42
2023-02-16T17:40:56.283Z,30.30
2023-02-16T17:46:58.205Z,31.42
2023-02-16T17:53:00.467Z,32.13
2023-02-16T17:59:03.437Z,32.03
2023-02-16T18:05:05.526Z,31.30
2023-02-16T18:11:07.428Z,32.63
2023-02-16T18:17:30.811Z,31.48
2023-02-16T18:23:47.457Z,32.60
2023-02-16T18:29:53.786Z,32.28
2023-02-16T18:35:57.504Z,30.77
2023-02-16T18:41:59.273Z,31.05
2023-02-16T18:48:01.038Z,32.30
2023-02-16T18:54:02.876Z,32.92
2023-02-16T19:00:06.291Z,32.28
2023-02-16T19:06:08.499Z,31.73
2023-02-16T19:12:10.370Z,32.60
2023-02-16T19:18:12.189Z,32.30
2023-02-16T19:24:13.975Z,32.17
2023-02-16T19:30:15.997Z,32.55
2023-02-16T19:36:19.017Z,32.25
2023-02-16T19:42:21.467Z,31.40
2023-02-16T19:48:23.271Z,31.55
2023-02-16T19:54:25.188Z,32.95
2023-02-16T20:00:27.033Z,32.67
2023-02-16T20:06:34.557Z,32.28
2023-02-16T20:12:36.617Z,32.47
2023-02-16T20:18:39.521Z,32.47
2023-02-16T20:24:41.777Z,30.95
2023-02-16T20:30:44.209Z,31.25
2023-02-16T20:36:46.625Z,32.35
2023-02-16T20:42:49.285Z,32.08
2023-02-16T20:48:53.242Z,30.70
2023-02-16T20:54:57.480Z,29.98
2023-02-16T21:01:03.379Z,31.67
2023-02-16T21:07:06.884Z,29.83
2023-02-16T21:13:10.054Z,30.08
2023-02-16T21:19:22.906Z,30.02
2023-02-16T21:25:27.394Z,28.13
2023-02-16T21:31:30.192Z,29.08
2023-02-16T21:37:35.769Z,30.77
2023-02-16T21:43:39.250Z,30.90
2023-02-16T21:49:48.127Z,31.80
2023-02-16T21:56:09.921Z,30.95
2023-02-16T22:02:11.738Z,32.70
2023-02-16T22:08:14.506Z,31.90
2023-02-16T22:14:16.438Z,31.15
2023-02-16T22:20:18.829Z,31.45
2023-02-16T22:26:29.639Z,33.03
2023-02-16T22:32:31.493Z,31.00
2023-02-16T22:38:33.457Z,30.38
2023-02-16T22:44:35.283Z,31.17
2023-02-16T22:50:37.068Z,31.65
2023-02-16T22:56:38.829Z,29.50
2023-02-16T23:02:40.853Z,31.70
2023-02-16T23:08:44.203Z,30.77
2023-02-16T23:14:46.036Z,29.05
2023-02-16T23:21:21.224Z,29.48
2023-02-16T23:27:23.486Z,28.45
2023-02-16T23:33:25.394Z,30.13
2023-02-16T23:39:27.185Z,29.15
2023-02-16T23:45:29.124Z,28.05
2023-02-16T23:51:32.611Z,30.95
2023-02-16T23:57:37.944Z,30.17
